Time;durP1;ratioP1;P1;durP2;ratioP2;P2;SDS_P1;SDS_P2;PMS_P1;PMS_P2;Temp;Humidity;BMP_temperature;BMP_pressure;BME280_temperature;BME280_humidity;BME280_pressure;Samples;Min_cycle;Max_cycle;Signal;HPM_P1;HPM_P2
2023/02/13 00:00:22;;;;;;;0.30;0.30;;;;;;;1.93;72.61;98757.91;4986015;28;20049;-53
2023/02/13 00:02:49;;;;;;;0.30;0.30;;;;;;;0.93;73.53;98620.16;4985283;28;20058;-54
2023/02/13 00:05:16;;;;;;;0.32;0.32;;;;;;;0.98;74.65;98702.03;4985828;28;20082;-54
2023/02/13 00:07:42;;;;;;;0.30;0.30;;;;;;;0.75;78.13;98746.13;4985270;28;20101;-55
2023/02/13 00:10:10;;;;;;;0.30;0.30;;;;;;;0.71;79.41;98783.19;4985409;28;20600;-55
2023/02/13 00:12:36;;;;;;;0.30;0.30;;;;;;;1.01;78.80;98783.34;4985464;28;20062;-55
2023/02/13 00:15:04;;;;;;;0.30;0.30;;;;;;;1.08;77.69;98781.19;4985606;28;20054;-55
2023/02/13 00:17:31;;;;;;;0.30;0.30;;;;;;;0.29;77.21;98653.47;4986227;28;20076;-54
2023/02/13 00:19:57;;;;;;;0.30;0.30;;;;;;;1.10;77.26;98780.94;5005060;28;20054;-56
2023/02/13 00:22:24;;;;;;;0.30;0.30;;;;;;;0.96;77.22;98790.69;5004470;28;20058;-54
2023/02/13 00:24:51;;;;;;;0.30;0.30;;;;;;;0.35;79.69;98743.19;5004935;28;20057;-56
2023/02/13 00:27:18;;;;;;;0.30;0.30;;;;;;;0.32;78.38;98713.72;5004984;28;20045;-56
2023/02/13 00:29:44;;;;;;;0.30;0.30;;;;;;;0.36;78.35;98738.56;5004374;28;20046;-55
2023/02/13 00:32:11;;;;;;;0.30;0.30;;;;;;;0.75;78.67;98795.22;5005075;28;20072;-56
2023/02/13 00:34:38;;;;;;;0.30;0.30;;;;;;;0.66;79.36;98791.38;5004398;28;20061;-56
2023/02/13 00:37:05;;;;;;;0.35;0.35;;;;;;;0.76;79.03;98794.13;5005398;28;20054;-56
2023/02/13 00:39:31;;;;;;;0.30;0.30;;;;;;;0.80;78.14;98788.97;5004119;28;20458;-55
2023/02/13 00:41:58;;;;;;;0.30;0.30;;;;;;;0.72;78.71;98784.03;5003127;28;20046;-55
2023/02/13 00:44:25;;;;;;;0.30;0.30;;;;;;;0.69;78.47;98790.00;5004556;28;20081;-55
2023/02/13 00:46:51;;;;;;;0.40;0.40;;;;;;;0.24;79.99;98782.34;5004922;28;20145;-56
2023/02/13 00:49:18;;;;;;;0.30;0.30;;;;;;;-0.95;84.17;98695.81;5002661;28;20575;-54
2023/02/13 00:51:45;;;;;;;0.30;0.30;;;;;;;-1.04;85.65;98691.94;5004637;28;20149;-54
2023/02/13 00:54:11;;;;;;;0.30;0.30;;;;;;;-0.10;84.04;98808.25;5003699;28;20103;-57
2023/02/13 00:56:38;;;;;;;0.30;0.30;;;;;;;0.00;83.47;98797.44;5004156;28;20066;-54
2023/02/13 00:59:05;;;;;;;0.30;0.30;;;;;;;-0.05;83.25;98800.13;5004636;28;20437;-57
2023/02/13 01:01:31;;;;;;;0.30;0.30;;;;;;;-0.03;82.78;98798.75;5004648;28;20050;-54
2023/02/13 01:03:58;;;;;;;0.30;0.30;;;;;;;-0.68;83.00;98680.31;5004304;28;20535;-54
2023/02/13 01:06:25;;;;;;;0.30;0.30;;;;;;;0.10;82.10;98789.31;5004186;28;20053;-55
2023/02/13 01:08:51;;;;;;;0.30;0.30;;;;;;;-0.44;82.19;98697.94;5004330;28;20124;-55
2023/02/13 01:11:18;;;;;;;0.30;0.30;;;;;;;0.12;81.85;98795.34;5003377;28;20395;-55
2023/02/13 01:13:45;;;;;;;0.30;0.30;;;;;;;0.15;81.00;98789.38;5003701;28;20053;-56
2023/02/13 01:16:14;;;;;;;0.30;0.30;;;;;;;0.06;81.78;98790.94;5004279;28;20049;-57
2023/02/13 01:18:41;;;;;;;0.30;0.30;;;;;;;-0.61;81.41;98676.31;5004095;28;20057;-56
2023/02/13 01:21:15;;;;;;;0.30;0.30;;;;;;;0.03;81.15;98793.34;5003787;28;20090;-54
2023/02/13 01:23:42;;;;;;;0.30;0.30;;;;;;;0.10;80.73;98788.50;5003674;28;20081;-56
2023/02/13 01:26:20;;;;;;;0.30;0.30;;;;;;;0.05;81.24;98792.00;5003456;28;20053;-54
2023/02/13 01:28:47;;;;;;;0.30;0.30;;;;;;;-0.91;82.57;98718.69;5003845;28;20064;-55
2023/02/13 01:31:14;;;;;;;0.30;0.30;;;;;;;-0.52;84.14;98782.78;5004208;28;20091;-56
2023/02/13 01:33:40;;;;;;;0.30;0.30;;;;;;;-0.77;82.54;98715.31;5004845;28;20213;-54
2023/02/13 01:36:13;;;;;;;0.30;0.30;;;;;;;-0.26;82.71;98799.09;5008311;28;20628;-56
2023/02/13 01:38:40;;;;;;;0.30;0.30;;;;;;;-0.21;82.24;98829.13;4996468;28;20105;-54
2023/02/13 01:41:08;;;;;;;0.30;0.30;;;;;;;-0.51;81.74;98752.59;4988632;28;20476;-56
2023/02/13 01:44:24;;;;;;;0.30;0.30;;;;;;;-1.96;81.71;98509.94;5006887;28;20058;-56
2023/02/13 01:46:51;;;;;;;0.30;0.30;;;;;;;-0.25;81.18;98800.75;4978581;28;20081;-56
2023/02/13 01:49:22;;;;;;;0.30;0.30;;;;;;;-0.26;80.83;98804.56;4999207;28;20137;-54
2023/02/13 01:51:52;;;;;;;0.30;0.30;;;;;;;-0.89;81.16;98719.28;5008052;28;20058;-54
2023/02/13 01:54:29;;;;;;;0.30;0.30;;;;;;;-0.37;81.26;98796.53;5007216;28;20054;-54
2023/02/13 01:57:02;;;;;;;0.30;0.30;;;;;;;-0.34;80.87;98820.53;5007606;28;20066;-55
2023/02/13 01:59:36;;;;;;;0.30;0.30;;;;;;;-0.40;81.30;98810.66;5006855;28;20065;-54
2023/02/13 02:02:03;;;;;;;0.30;0.30;;;;;;;-0.43;82.03;98819.34;5007935;28;20058;-55
2023/02/13 02:04:37;;;;;;;0.30;0.30;;;;;;;-0.96;83.33;98781.19;5006002;28;20128;-53
2023/02/13 02:07:09;;;;;;;0.20;0.20;;;;;;;-0.82;83.35;98777.03;5008013;28;20056;-55
2023/02/13 02:09:39;;;;;;;0.30;0.30;;;;;;;-0.62;82.44;98834.38;5007613;28;20064;-53
2023/02/13 02:12:13;;;;;;;0.30;0.30;;;;;;;-3.48;81.91;98326.63;5007666;28;20535;-56
2023/02/13 02:14:41;;;;;;;0.30;0.30;;;;;;;-1.11;82.33;98740.25;5007357;28;20116;-58
2023/02/13 02:17:09;;;;;;;0.30;0.30;;;;;;;-0.62;82.87;98815.34;5005930;28;20128;-56
2023/02/13 02:19:41;;;;;;;0.30;0.30;;;;;;;-0.60;82.61;98829.50;5006649;28;20137;-55
2023/02/13 02:22:16;;;;;;;0.30;0.30;;;;;;;-0.61;81.88;98822.41;5007835;28;20139;-55
2023/02/13 02:24:55;;;;;;;0.25;0.25;;;;;;;-0.66;81.73;98825.06;5006690;28;20057;-56
2023/02/13 02:27:38;;;;;;;0.30;0.30;;;;;;;-0.82;82.69;98826.00;5006654;28;20628;-55
2023/02/13 02:30:40;;;;;;;0.30;0.30;;;;;;;-0.98;82.96;98821.44;5007462;28;20543;-53
2023/02/13 02:33:24;;;;;;;0.30;0.30;;;;;;;-1.33;83.51;98788.34;5007130;28;20061;-56
2023/02/13 02:35:59;;;;;;;;;;;;;;;-0.91;83.18;98839.19;5007628;28;20128;-55
2023/02/13 02:38:33;;;;;;;0.30;0.30;;;;;;;-1.20;84.35;98835.00;5007696;28;20359;-55
2023/02/13 02:41:41;;;;;;;0.30;0.30;;;;;;;-1.04;83.65;98833.31;5005077;28;20050;-54
2023/02/13 02:44:54;;;;;;;0.20;0.20;;;;;;;-0.92;83.09;98831.28;5004018;28;20065;-55
2023/02/13 02:51:00;;;;;;;0.20;0.20;;;;;;;-1.15;83.32;98836.94;4987011;28;20837;-53
2023/02/13 02:57:05;;;;;;;0.30;0.30;;;;;;;-1.23;84.15;98845.56;4986592;28;20063;-54
2023/02/13 03:08:13;;;;;;;0.20;0.20;;;;;;;-1.33;84.28;98840.81;5006586;28;20483;-54
2023/02/13 03:13:43;;;;;;;0.20;0.20;;;;;;;-1.32;84.02;98837.00;5006330;28;20058;-53
2023/02/13 03:22:33;;;;;;;0.20;0.20;;;;;;;-1.68;86.15;98827.53;4964311;28;19927;-53
2023/02/13 03:25:32;;;;;;;0.30;0.30;;;;;;;-1.69;86.35;98828.59;4954237;28;20137;-53
2023/02/13 03:31:18;;;;;;;;;;;;;;;-1.59;85.19;98842.34;5006531;28;20456;-55
2023/02/13 03:33:48;;;;;;;0.20;0.20;;;;;;;-1.79;85.39;98847.41;5005651;28;19925;-54
2023/02/13 03:39:38;;;;;;;0.20;0.20;;;;;;;-1.85;85.77;98848.41;5001873;28;20095;-54
2023/02/13 03:42:11;;;;;;;0.30;0.30;;;;;;;-1.82;86.37;98847.91;5005282;28;20053;-54
2023/02/13 03:47:50;;;;;;;0.20;0.20;;;;;;;-2.50;87.69;98771.34;5005808;28;20154;-55
2023/02/13 03:50:17;;;;;;;0.30;0.30;;;;;;;-1.79;87.62;98836.56;5003560;28;20144;-55
2023/02/13 03:52:49;;;;;;;0.30;0.30;;;;;;;-1.71;87.18;98838.88;5005449;28;20053;-55
2023/02/13 04:01:01;;;;;;;0.30;0.30;;;;;;;-1.60;85.97;98835.22;5005005;28;20093;-55
2023/02/13 04:03:49;;;;;;;0.25;0.25;;;;;;;-1.73;85.41;98813.88;5004175;28;20656;-53
2023/02/13 04:06:20;;;;;;;0.30;0.30;;;;;;;-1.83;85.01;98802.00;5004410;28;20484;-55
2023/02/13 04:08:47;;;;;;;0.20;0.20;;;;;;;-1.63;84.72;98835.72;5005172;28;20061;-56
2023/02/13 04:11:30;;;;;;;0.30;0.30;;;;;;;-1.42;85.18;98857.78;5005337;28;20094;-55
2023/02/13 04:13:58;;;;;;;;;;;;;;;-1.51;84.49;98857.38;4986448;28;20473;-55
2023/02/13 04:16:37;;;;;;;0.20;0.20;;;;;;;-1.86;85.96;98852.22;4985624;28;19977;-55
2023/02/13 04:19:07;;;;;;;0.20;0.20;;;;;;;-1.66;85.46;98866.13;4988230;28;20050;-53
2023/02/13 04:21:35;;;;;;;0.20;0.20;;;;;;;-2.03;85.21;98802.53;5003634;28;20049;-55
2023/02/13 04:24:03;;;;;;;0.20;0.20;;;;;;;-1.81;85.54;98852.31;5005114;28;20705;-54
2023/02/13 04:26:36;;;;;;;0.30;0.30;;;;;;;-1.79;85.08;98825.69;5003685;28;20054;-54
2023/02/13 04:29:03;;;;;;;0.20;0.20;;;;;;;-1.65;85.57;98859.63;5005381;28;20518;-55
2023/02/13 04:31:30;;;;;;;0.20;0.20;;;;;;;-1.49;84.44;98865.28;5005035;28;20061;-54
2023/02/13 04:33:57;;;;;;;0.20;0.20;;;;;;;-1.85;85.03;98870.16;5004688;28;20057;-56
2023/02/13 04:36:23;;;;;;;0.20;0.20;;;;;;;-1.99;87.09;98863.38;5004617;28;20058;-53
2023/02/13 04:38:50;;;;;;;0.30;0.30;;;;;;;-1.89;85.36;98868.16;5003320;28;20092;-56
2023/02/13 04:41:17;;;;;;;0.20;0.20;;;;;;;-1.85;85.60;98874.78;5004667;28;20060;-55
2023/02/13 04:43:43;;;;;;;0.30;0.30;;;;;;;-1.84;85.63;98869.09;5004247;28;20046;-57
2023/02/13 04:46:10;;;;;;;0.20;0.20;;;;;;;-2.15;86.08;98847.91;5004477;28;20124;-55
2023/02/13 04:48:37;;;;;;;0.30;0.30;;;;;;;-1.77;85.24;98877.88;5004058;28;20046;-55
2023/02/13 04:51:04;;;;;;;0.20;0.20;;;;;;;-1.73;84.09;98876.34;5003998;28;20507;-53
2023/02/13 04:53:31;;;;;;;0.20;0.20;;;;;;;-1.84;83.80;98874.53;5004399;28;20062;-55
2023/02/13 04:55:57;;;;;;;0.30;0.30;;;;;;;-2.37;84.40;98893.09;5002532;28;20582;-54
2023/02/13 04:58:24;;;;;;;0.22;0.22;;;;;;;-2.42;86.70;98898.41;5004567;28;20133;-56
2023/02/13 05:00:51;;;;;;;0.20;0.20;;;;;;;-2.33;86.53;98888.84;5003683;28;20045;-55
2023/02/13 05:03:17;;;;;;;0.20;0.20;;;;;;;-2.23;85.43;98883.59;5004663;28;20103;-57
2023/02/13 05:05:44;;;;;;;0.20;0.20;;;;;;;-2.20;85.17;98891.25;5004486;28;20054;-53
2023/02/13 05:08:11;;;;;;;0.20;0.20;;;;;;;-2.18;85.20;98886.41;5003591;28;20115;-54
2023/02/13 05:10:38;;;;;;;0.30;0.30;;;;;;;-2.13;85.49;98899.22;5004472;28;20128;-53
2023/02/13 05:13:04;;;;;;;0.30;0.30;;;;;;;-2.14;85.13;98898.44;5003386;28;20050;-54
2023/02/13 05:15:31;;;;;;;0.20;0.20;;;;;;;-2.65;85.55;98821.75;5004367;28;20191;-55
2023/02/13 05:17:58;;;;;;;0.30;0.30;;;;;;;-5.12;85.44;98420.72;5002549;28;20053;-54
2023/02/13 05:20:25;;;;;;;0.20;0.20;;;;;;;-2.18;84.74;98905.38;5004124;28;20540;-54
2023/02/13 05:25:40;;;;;;;0.20;0.20;;;;;;;-2.18;85.21;98910.03;5004326;28;20509;-53
2023/02/13 05:31:06;;;;;;;0.20;0.20;;;;;;;-2.24;85.71;98919.94;4991800;28;20133;-53
2023/02/13 05:33:33;;;;;;;0.20;0.20;;;;;;;-2.34;85.24;98876.31;5004363;28;20066;-54
2023/02/13 05:36:00;;;;;;;0.20;0.20;;;;;;;-2.25;85.22;98885.75;5003873;28;20140;-54
2023/02/13 05:38:26;;;;;;;0.20;0.20;;;;;;;-2.12;84.92;98896.28;5004147;28;20073;-55
2023/02/13 05:40:53;;;;;;;0.28;0.28;;;;;;;-1.90;85.06;98905.34;5002769;28;20133;-55
2023/02/13 05:43:19;;;;;;;0.20;0.20;;;;;;;-2.37;85.02;98832.59;5002267;28;20061;-54
2023/02/13 05:45:47;;;;;;;0.20;0.20;;;;;;;-1.89;84.72;98917.88;5002616;28;20120;-56
2023/02/13 05:48:13;;;;;;;0.20;0.20;;;;;;;-2.04;85.28;98914.88;5003737;28;20144;-55
2023/02/13 05:50:40;;;;;;;0.20;0.20;;;;;;;-2.44;84.95;98843.59;5003487;28;20153;-54
2023/02/13 05:53:06;;;;;;;0.20;0.20;;;;;;;-1.91;84.91;98914.59;5003326;28;20084;-55
2023/02/13 05:55:33;;;;;;;0.20;0.20;;;;;;;-1.67;84.50;98916.09;5002086;28;20058;-56
2023/02/13 05:58:00;;;;;;;0.20;0.20;;;;;;;-2.03;83.19;98837.81;5015269;28;20757;-53
2023/02/13 06:00:26;;;;;;;0.30;0.30;;;;;;;-1.58;83.24;98914.59;5003858;28;20098;-55
2023/02/13 06:02:53;;;;;;;0.30;0.30;;;;;;;-1.35;83.08;98923.66;5002268;28;20125;-55
2023/02/13 06:05:19;;;;;;;0.28;0.28;;;;;;;-1.20;83.16;98921.19;5002313;28;20572;-54
2023/02/13 06:07:46;;;;;;;0.28;0.28;;;;;;;-1.08;81.90;98913.75;5003420;28;20267;-55
2023/02/13 06:10:13;;;;;;;0.30;0.30;;;;;;;-1.18;81.83;98891.84;5002752;28;20086;-57
2023/02/13 06:12:39;;;;;;;0.30;0.30;;;;;;;-0.94;81.41;98909.59;5003668;28;20597;-56
2023/02/13 06:15:06;;;;;;;0.30;0.30;;;;;;;-0.72;81.68;98908.53;5003943;28;20579;-53
2023/02/13 06:17:33;;;;;;;0.30;0.30;;;;;;;-0.60;80.19;98911.16;5003009;28;20097;-55
2023/02/13 06:19:59;;;;;;;0.30;0.30;;;;;;;-0.59;80.01;98918.22;5005482;28;20057;-54
2023/02/13 06:22:26;;;;;;;0.30;0.30;;;;;;;-1.02;79.99;98847.47;5007154;28;20053;-55
2023/02/13 06:24:53;;;;;;;0.30;0.30;;;;;;;-0.30;80.49;98906.88;5007239;28;20049;-56
2023/02/13 06:27:19;;;;;;;0.30;0.30;;;;;;;-0.16;79.42;98907.31;5006750;28;20335;-55
2023/02/13 06:29:46;;;;;;;0.30;0.30;;;;;;;-0.14;79.01;98899.69;5005781;28;20088;-55
2023/02/13 06:32:13;;;;;;;0.30;0.30;;;;;;;-0.28;78.90;98873.94;5007307;28;20548;-54
2023/02/13 06:34:39;;;;;;;0.30;0.30;;;;;;;0.04;79.21;98923.84;5005126;28;20064;-54
2023/02/13 06:37:06;;;;;;;0.30;0.30;;;;;;;0.11;78.34;98886.34;5005474;28;20132;-55
2023/02/13 06:39:33;;;;;;;0.30;0.30;;;;;;;0.41;78.52;98916.56;5006676;28;20127;-56
2023/02/13 06:41:59;;;;;;;0.30;0.30;;;;;;;0.61;78.08;98905.00;5007284;28;20096;-54
2023/02/13 06:44:26;;;;;;;0.40;0.40;;;;;;;0.87;76.11;98899.47;5006073;28;20058;-55
2023/02/13 06:46:53;;;;;;;0.32;0.32;;;;;;;0.98;75.83;98903.91;5006873;28;20331;-56
2023/02/13 06:49:19;;;;;;;0.30;0.30;;;;;;;1.16;76.10;98911.69;5005093;28;20464;-57
2023/02/13 06:51:46;;;;;;;0.30;0.30;;;;;;;1.02;75.98;98847.75;5007589;28;20147;-54
2023/02/13 06:54:12;;;;;;;0.30;0.30;;;;;;;1.49;74.93;98884.00;5004542;28;20532;-55
2023/02/13 06:56:39;;;;;;;0.30;0.30;;;;;;;1.26;74.26;98862.63;4991805;28;20173;-56
2023/02/13 06:59:06;;;;;;;0.30;0.30;;;;;;;1.73;74.21;98880.78;5000923;28;20053;-55
2023/02/13 07:01:32;;;;;;;0.30;0.30;;;;;;;1.76;73.20;98866.59;5005830;28;20236;-55
2023/02/13 07:03:59;;;;;;;0.30;0.30;;;;;;;1.64;73.13;98808.66;5005663;28;20465;-56
2023/02/13 07:06:26;;;;;;;0.38;0.38;;;;;;;2.28;72.20;98886.38;5004828;28;20057;-55
2023/02/13 07:08:54;;;;;;;0.40;0.40;;;;;;;2.47;72.06;98892.94;5005775;28;20089;-56
2023/02/13 07:11:23;;;;;;;0.40;0.40;;;;;;;2.80;72.07;98895.13;5006429;28;20050;-58
2023/02/13 07:13:50;;;;;;;0.40;0.40;;;;;;;2.40;71.33;98840.44;5014280;28;20393;-55
2023/02/13 07:16:17;;;;;;;0.40;0.40;;;;;;;3.15;70.36;98897.81;5016665;28;20431;-57
2023/02/13 07:18:44;;;;;;;0.40;0.40;;;;;;;2.77;69.14;98811.69;5008762;28;20079;-56
2023/02/13 07:21:11;;;;;;;0.40;0.40;;;;;;;2.96;69.35;98809.16;5014651;28;20103;-58
2023/02/13 07:23:38;;;;;;;0.40;0.40;;;;;;;3.58;68.25;98871.66;5013193;28;20089;-56
2023/02/13 07:26:05;;;;;;;0.40;0.40;;;;;;;3.65;67.18;98848.31;5022838;28;20061;-58
2023/02/13 07:28:32;;;;;;;0.40;0.40;;;;;;;3.83;67.23;98839.47;5018817;28;20054;-54
2023/02/13 07:31:04;;;;;;;0.43;0.43;;;;;;;3.89;67.29;98813.66;5019354;28;20084;-56
2023/02/13 07:33:35;;;;;;;0.40;0.40;;;;;;;4.28;65.79;98863.81;5015851;28;20061;-56
2023/02/13 07:36:02;;;;;;;0.40;0.40;;;;;;;4.20;64.89;98850.75;5005714;28;20136;-58
2023/02/13 07:38:30;;;;;;;0.40;0.40;;;;;;;3.92;66.72;98843.22;5007770;28;20509;-59
2023/02/13 07:40:58;;;;;;;0.40;0.40;;;;;;;3.71;66.00;98765.00;5010964;28;20088;-55
2023/02/13 07:43:25;;;;;;;0.50;0.50;;;;;;;4.28;65.81;98858.34;5012847;28;20054;-55
2023/02/13 07:45:55;;;;;;;0.47;0.47;;;;;;;3.09;70.80;98841.44;5005585;28;20085;-56
2023/02/13 07:48:23;;;;;;;0.40;0.40;;;;;;;3.10;72.34;98874.00;5004741;28;20069;-55
2023/02/13 07:50:49;;;;;;;0.40;0.40;;;;;;;3.53;71.31;98867.00;5005261;28;20073;-56
2023/02/13 07:53:16;;;;;;;0.40;0.40;;;;;;;3.98;69.61;98863.22;5012677;28;20085;-56
2023/02/13 07:55:43;;;;;;;0.40;0.40;;;;;;;3.86;68.52;98818.88;5004430;28;20149;-55
2023/02/13 07:58:10;;;;;;;0.40;0.40;;;;;;;4.65;66.55;98858.59;5013947;28;20266;-57
2023/02/13 08:00:36;;;;;;;0.50;0.50;;;;;;;4.59;65.97;98818.59;5007954;28;20053;-56
2023/02/13 08:03:03;;;;;;;0.40;0.40;;;;;;;4.50;65.28;98786.56;4995912;28;20628;-58
2023/02/13 08:05:31;;;;;;;0.50;0.50;;;;;;;5.33;64.40;98852.97;5005230;28;20801;-57
2023/02/13 08:07:58;;;;;;;0.50;0.50;;;;;;;5.65;62.37;98842.13;5004239;28;20620;-55
2023/02/13 08:13:12;;;;;;;0.50;0.50;;;;;;;5.84;60.56;98823.75;5018545;28;20121;-55
2023/02/13 08:15:39;;;;;;;0.50;0.50;;;;;;;5.99;61.24;98834.56;5014445;28;20579;-58
2023/02/13 08:18:06;;;;;;;0.50;0.50;;;;;;;6.22;60.28;98841.91;5002901;28;20077;-57
2023/02/13 08:20:32;;;;;;;0.50;0.50;;;;;;;6.35;59.62;98832.91;5002768;28;20116;-54
2023/02/13 08:23:04;;;;;;;0.50;0.50;;;;;;;6.35;59.12;98816.41;5020086;28;20124;-55
2023/02/13 08:25:32;;;;;;;0.50;0.50;;;;;;;6.25;58.70;98789.03;5004218;28;20060;-58
2023/02/13 08:27:59;;;;;;;0.52;0.52;;;;;;;6.61;57.69;98809.31;5004279;28;20085;-58
2023/02/13 08:30:27;;;;;;;0.52;0.52;;;;;;;6.46;58.00;98745.47;5002908;28;20151;-57
2023/02/13 08:32:54;;;;;;;0.57;0.57;;;;;;;6.81;56.49;98814.47;5004309;28;20130;-57
2023/02/13 08:35:25;;;;;;;0.50;0.50;;;;;;;5.45;57.54;98672.84;5002396;28;20058;-56
2023/02/13 08:37:52;;;;;;;0.55;0.55;;;;;;;6.56;57.79;98816.88;5019364;28;20053;-56
2023/02/13 08:40:19;;;;;;;0.60;0.60;;;;;;;6.81;56.98;98806.22;5012492;28;20077;-53
2023/02/13 08:42:46;;;;;;;0.60;0.60;;;;;;;6.70;56.86;98757.94;5014794;28;20049;-59
2023/02/13 08:45:13;;;;;;;0.60;0.60;;;;;;;7.17;56.33;98812.72;4992374;28;20907;-55
2023/02/13 08:47:39;;;;;;;0.60;0.60;;;;;;;7.01;55.95;98725.97;5002814;28;20046;-58
2023/02/13 08:50:07;;;;;;;0.55;0.55;;;;;;;7.76;55.20;98813.72;4999466;28;20067;-55
2023/02/13 08:52:34;;;;;;;0.70;0.70;;;;;;;8.02;53.61;98809.25;4985023;28;20390;-58
2023/02/13 08:55:02;;;;;;;0.70;0.70;;;;;;;7.73;53.16;98763.53;5002896;28;20909;-60
2023/02/13 08:57:30;;;;;;;0.70;0.70;;;;;;;8.19;52.88;98809.44;5004037;28;20054;-56
2023/02/13 08:59:56;;;;;;;0.70;0.70;;;;;;;7.78;52.96;98757.09;5003992;28;20387;-56
2023/02/13 09:02:23;;;;;;;0.70;0.70;;;;;;;8.35;52.37;98805.19;5002551;28;20103;-56
2023/02/13 09:04:50;;;;;;;0.70;0.70;;;;;;;8.48;52.44;98804.31;5006385;28;20088;-58
2023/02/13 09:07:16;;;;;;;0.70;0.70;;;;;;;8.28;51.21;98755.94;5004411;28;20073;-55
2023/02/13 09:09:43;;;;;;;0.70;0.70;;;;;;;8.23;50.84;98752.47;5004636;28;20863;-58
2023/02/13 09:12:10;;;;;;;0.80;0.80;;;;;;;8.59;51.27;98789.13;5003818;28;20096;-55
2023/02/13 09:14:38;;;;;;;0.70;0.70;;;;;;;8.80;50.70;98799.31;5003502;28;20046;-56
2023/02/13 09:17:04;;;;;;;0.70;0.70;;;;;;;8.73;49.92;98803.66;5003940;28;20307;-56
2023/02/13 09:19:31;;;;;;;0.70;0.70;;;;;;;8.01;49.08;98697.25;5008942;28;20042;-56
2023/02/13 09:21:58;;;;;;;0.70;0.70;;;;;;;8.58;49.70;98793.81;5023501;28;20053;-57
2023/02/13 09:24:25;;;;;;;0.70;0.70;;;;;;;8.50;49.02;98769.75;5009852;28;20058;-56
2023/02/13 09:26:51;;;;;;;0.70;0.70;;;;;;;8.47;49.11;98786.13;5010194;28;20057;-56
2023/02/13 09:29:18;;;;;;;0.70;0.70;;;;;;;8.48;49.54;98790.50;5010194;28;20062;-56
2023/02/13 09:31:45;;;;;;;0.70;0.70;;;;;;;8.34;49.41;98781.47;5002985;28;20492;-55
2023/02/13 09:34:11;;;;;;;0.70;0.70;;;;;;;7.94;50.05;98760.31;5003582;28;20050;-57
2023/02/13 09:36:38;;;;;;;0.63;0.63;;;;;;;7.76;50.14;98719.91;5003662;28;20057;-57
2023/02/13 09:39:05;;;;;;;0.70;0.70;;;;;;;8.29;49.90;98763.09;5003821;28;20054;-56
2023/02/13 09:41:36;;;;;;;0.70;0.70;;;;;;;8.37;49.89;98764.28;5005131;28;20524;-57
2023/02/13 09:44:33;;;;;;;0.80;0.80;;;;;;;8.52;49.08;98766.66;5003791;28;20184;-56
2023/02/13 09:47:00;;;;;;;0.60;0.60;;;;;;;8.39;49.56;98762.03;5003538;28;20041;-60
2023/02/13 09:49:31;;;;;;;0.60;0.60;;;;;;;8.41;49.51;98759.78;5007586;28;20081;-59
2023/02/13 09:51:57;;;;;;;0.70;0.70;;;;;;;7.37;49.13;98580.75;5020596;28;20103;-56
2023/02/13 09:54:27;;;;;;;0.68;0.68;;;;;;;8.02;49.05;98669.34;5010426;28;20472;-56
2023/02/13 09:57:01;;;;;;;0.80;0.80;;;;;;;8.23;48.57;98708.31;5007147;28;20092;-60
2023/02/13 09:59:49;;;;;;;0.70;0.70;;;;;;;8.51;48.68;98742.91;5005972;28;20247;-57
2023/02/13 10:02:25;;;;;;;0.70;0.70;;;;;;;8.45;48.46;98738.66;5005692;28;20054;-58
2023/02/13 10:05:09;;;;;;;0.70;0.70;;;;;;;8.27;48.11;98654.09;5005521;28;20052;-56
2023/02/13 10:07:48;;;;;;;0.65;0.65;;;;;;;8.74;48.15;98722.44;5019557;28;20103;-56
2023/02/13 10:10:17;;;;;;;0.70;0.70;;;;;;;8.81;47.80;98725.53;5013142;28;20695;-58
2023/02/13 10:13:15;;;;;;;0.70;0.70;;;;;;;8.78;47.65;98720.66;5001103;28;20101;-56
2023/02/13 10:15:50;;;;;;;0.70;0.70;;;;;;;8.41;47.51;98633.53;4985891;28;20054;-57
2023/02/13 10:18:33;;;;;;;0.70;0.70;;;;;;;8.82;47.57;98685.75;4992613;28;20149;-58
2023/02/13 10:21:02;;;;;;;0.80;0.80;;;;;;;9.09;47.08;98699.31;5015972;28;20544;-56
2023/02/13 10:23:42;;;;;;;0.80;0.80;;;;;;;9.05;47.12;98699.16;5020568;28;20053;-56
2023/02/13 10:26:44;;;;;;;0.70;0.70;;;;;;;8.84;47.20;98702.78;5013121;28;20064;-61
2023/02/13 10:32:07;;;;;;;0.75;0.75;;;;;;;8.38;47.35;98601.03;4987270;28;20505;-58
2023/02/13 10:34:40;;;;;;;0.70;0.70;;;;;;;9.26;46.08;98682.78;5005031;28;20125;-57
2023/02/13 10:37:16;;;;;;;0.80;0.80;;;;;;;9.13;46.71;98680.97;5022530;28;20049;-60
2023/02/13 10:39:46;;;;;;;0.80;0.80;;;;;;;9.32;46.69;98675.97;5008177;28;20781;-58
2023/02/13 10:42:24;;;;;;;0.70;0.70;;;;;;;8.80;47.07;98669.44;4994220;28;20069;-58
2023/02/13 10:45:04;;;;;;;0.70;0.70;;;;;;;9.07;46.37;98673.97;5003576;28;20089;-57
2023/02/13 10:47:52;;;;;;;0.80;0.80;;;;;;;9.55;45.81;98680.22;5021643;28;20571;-57
2023/02/13 10:50:50;;;;;;;0.70;0.70;;;;;;;7.66;45.68;98412.91;5001544;28;20082;-58
2023/02/13 10:53:46;;;;;;;0.80;0.80;;;;;;;9.32;45.78;98675.97;5005910;28;20524;-56
2023/02/13 10:56:22;;;;;;;0.80;0.80;;;;;;;9.76;45.19;98670.16;5005939;28;20135;-57
2023/02/13 10:59:23;;;;;;;0.70;0.70;;;;;;;10.01;44.65;98666.56;5006621;28;20112;-58
2023/02/13 11:01:59;;;;;;;0.80;0.80;;;;;;;9.83;45.24;98659.41;4994271;28;20520;-58
2023/02/13 11:04:28;;;;;;;0.80;0.80;;;;;;;9.87;45.51;98660.38;5005252;28;20477;-57
2023/02/13 11:07:00;;;;;;;0.80;0.80;;;;;;;9.43;44.86;98566.66;5005480;28;20076;-58
2023/02/13 11:09:32;;;;;;;0.80;0.80;;;;;;;9.68;43.64;98582.44;5005038;28;20054;-58
2023/02/13 11:12:23;;;;;;;0.80;0.80;;;;;;;9.43;44.76;98624.75;5020813;28;20041;-60
2023/02/13 11:14:59;;;;;;;0.80;0.80;;;;;;;9.46;44.98;98615.78;5007275;28;20046;-60
2023/02/13 11:17:35;;;;;;;0.90;0.90;;;;;;;10.00;44.36;98645.56;5004877;28;20050;-59
2023/02/13 11:20:21;;;;;;;0.80;0.80;;;;;;;9.20;43.97;98518.16;5001343;28;20050;-60
2023/02/13 11:22:48;;;;;;;0.80;0.80;;;;;;;10.10;43.84;98636.94;5014229;28;20516;-58
2023/02/13 11:25:20;;;;;;;0.90;0.90;;;;;;;10.21;43.52;98627.13;5005007;28;20101;-58
2023/02/13 11:27:49;;;;;;;0.80;0.80;;;;;;;9.94;43.80;98610.06;5006707;28;20046;-62
2023/02/13 11:30:22;;;;;;;0.80;0.80;;;;;;;10.22;43.63;98623.25;5008169;28;20081;-57
2023/02/13 11:32:59;;;;;;;0.80;0.80;;;;;;;10.34;43.11;98617.00;5017289;28;20532;-59
2023/02/13 11:35:32;;;;;;;0.80;0.80;;;;;;;10.34;42.95;98609.50;5005745;28;20060;-58
2023/02/13 11:38:17;;;;;;;0.90;0.90;;;;;;;10.42;43.27;98611.44;5016280;28;20080;-58
2023/02/13 11:40:46;;;;;;;0.90;0.90;;;;;;;9.93;43.04;98559.44;5013368;28;20045;-60
2023/02/13 11:43:28;;;;;;;0.90;0.90;;;;;;;10.28;43.09;98580.38;5007955;28;20092;-57
2023/02/13 11:46:11;;;;;;;0.90;0.90;;;;;;;10.47;42.88;98602.13;5013673;28;20165;-58
2023/02/13 11:48:39;;;;;;;0.90;0.90;;;;;;;10.59;42.34;98594.75;5008974;28;20057;-58
2023/02/13 11:51:05;;;;;;;0.90;0.90;;;;;;;10.87;42.68;98583.22;5020611;28;20374;-59
2023/02/13 11:53:38;;;;;;;0.80;0.80;;;;;;;10.51;42.51;98581.75;5017917;28;20115;-58
2023/02/13 11:56:14;;;;;;;0.90;0.90;;;;;;;10.66;41.94;98586.75;5005235;28;20093;-61
2023/02/13 11:58:41;;;;;;;0.90;0.90;;;;;;;10.38;42.07;98593.88;4998754;28;20104;-61
2023/02/13 12:01:10;;;;;;;0.80;0.80;;;;;;;10.21;42.30;98587.56;4996265;28;20121;-58
2023/02/13 12:03:39;;;;;;;0.80;0.80;;;;;;;10.06;42.30;98541.81;4811574;28;5001660;-59
2023/02/13 12:06:13;;;;;;;0.80;0.80;;;;;;;10.61;42.19;98581.38;5014387;28;20057;-57
2023/02/13 12:08:45;;;;;;;0.90;0.90;;;;;;;10.84;41.63;98554.22;5016324;28;20065;-57
2023/02/13 12:11:21;;;;;;;0.90;0.90;;;;;;;11.14;41.10;98571.63;5009815;28;20127;-57
2023/02/13 12:13:50;;;;;;;0.90;0.90;;;;;;;10.06;41.39;98447.69;5017763;28;20131;-55
2023/02/13 12:16:29;;;;;;;0.90;0.90;;;;;;;10.96;40.93;98564.56;5022234;28;20049;-58
2023/02/13 12:19:02;;;;;;;0.90;0.90;;;;;;;11.12;40.68;98558.09;5000383;28;20162;-57
2023/02/13 12:21:39;;;;;;;0.80;0.80;;;;;;;10.86;41.05;98553.88;5007930;28;20084;-59
2023/02/13 12:24:30;;;;;;;0.90;0.90;;;;;;;11.15;40.43;98545.50;5011468;28;20065;-56
2023/02/13 12:27:10;;;;;;;0.85;0.85;;;;;;;10.77;41.12;98551.13;4995870;28;20053;-57
2023/02/13 12:29:55;;;;;;;0.90;0.90;;;;;;;9.74;40.52;98318.22;5017374;28;20096;-58
2023/02/13 12:32:33;;;;;;;0.90;0.90;;;;;;;11.17;40.50;98546.00;5011179;28;20053;-58
2023/02/13 12:35:19;;;;;;;0.80;0.80;;;;;;;11.17;40.36;98544.03;5005825;28;20143;-57
2023/02/13 12:37:57;;;;;;;0.98;0.98;;;;;;;11.21;40.40;98546.91;5002009;28;20567;-57
2023/02/13 12:40:50;;;;;;;0.90;0.90;;;;;;;11.23;40.47;98531.59;5002575;28;20127;-57
2023/02/13 12:43:26;;;;;;;0.90;0.90;;;;;;;11.13;40.31;98536.72;5009983;28;20064;-59
2023/02/13 12:46:02;;;;;;;0.80;0.80;;;;;;;11.26;40.18;98530.06;5011906;28;20128;-56
2023/02/13 12:48:42;;;;;;;0.90;0.90;;;;;;;11.22;40.16;98529.16;5004519;28;20085;-57